sensor_id;sensor_type;location;lat;lon;timestamp;pressure;altitude;pressure_sealevel;temperature;humidity
57192;BME280;43052;52.588;13.396;2023-04-08T00:00:01;101661.84;;;5.85;77.73
57192;BME280;43052;52.588;13.396;2023-04-08T00:02:26;101661.66;;;5.79;77.82
57192;BME280;43052;52.588;13.396;2023-04-08T00:04:51;101666.16;;;5.85;77.90
57192;BME280;43052;52.588;13.396;2023-04-08T00:07:16;101662.00;;;5.90;77.85
57192;BME280;43052;52.588;13.396;2023-04-08T00:09:42;101668.16;;;5.93;77.98
57192;BME280;43052;52.588;13.396;2023-04-08T00:12:07;101676.00;;;5.96;77.74
57192;BME280;43052;52.588;13.396;2023-04-08T00:14:32;101671.59;;;5.94;77.45
57192;BME280;43052;52.588;13.396;2023-04-08T00:16:58;101675.75;;;5.87;77.69
57192;BME280;43052;52.588;13.396;2023-04-08T00:19:23;101673.97;;;5.86;77.96
57192;BME280;43052;52.588;13.396;2023-04-08T00:21:49;101670.53;;;5.87;77.77
57192;BME280;43052;52.588;13.396;2023-04-08T00:24:15;101671.50;;;5.91;77.95
57192;BME280;43052;52.588;13.396;2023-04-08T00:26:40;101665.63;;;5.96;77.81
57192;BME280;43052;52.588;13.396;2023-04-08T00:29:05;101671.09;;;6.06;77.70
57192;BME280;43052;52.588;13.396;2023-04-08T00:31:31;101663.16;;;6.00;77.81
57192;BME280;43052;52.588;13.396;2023-04-08T00:33:56;101684.16;;;6.07;77.71
57192;BME280;43052;52.588;13.396;2023-04-08T00:36:22;101677.06;;;6.02;77.88
57192;BME280;43052;52.588;13.396;2023-04-08T00:38:47;101685.78;;;6.04;77.79
57192;BME280;43052;52.588;13.396;2023-04-08T00:41:12;101675.47;;;6.07;77.90
57192;BME280;43052;52.588;13.396;2023-04-08T00:43:38;101678.34;;;6.18;77.66
57192;BME280;43052;52.588;13.396;2023-04-08T00:46:04;101672.38;;;6.20;77.47
57192;BME280;43052;52.588;13.396;2023-04-08T00:48:29;101672.53;;;6.26;77.37
57192;BME280;43052;52.588;13.396;2023-04-08T00:50:56;101677.75;;;6.28;77.47
57192;BME280;43052;52.588;13.396;2023-04-08T00:53:21;101672.53;;;6.26;77.31
57192;BME280;43052;52.588;13.396;2023-04-08T00:55:47;101673.28;;;6.22;77.12
57192;BME280;43052;52.588;13.396;2023-04-08T00:58:13;101668.72;;;6.14;77.55
57192;BME280;43052;52.588;13.396;2023-04-08T01:00:41;101666.81;;;6.06;77.56
57192;BME280;43052;52.588;13.396;2023-04-08T01:03:16;101659.91;;;6.08;77.61
57192;BME280;43052;52.588;13.396;2023-04-08T01:05:54;101667.81;;;6.13;77.66
57192;BME280;43052;52.588;13.396;2023-04-08T01:08:40;101672.16;;;6.13;77.70
57192;BME280;43052;52.588;13.396;2023-04-08T01:11:09;101681.69;;;6.12;77.43
57192;BME280;43052;52.588;13.396;2023-04-08T01:13:38;101673.78;;;6.09;77.41
57192;BME280;43052;52.588;13.396;2023-04-08T01:16:04;101675.50;;;6.08;77.37
57192;BME280;43052;52.588;13.396;2023-04-08T01:18:32;101681.41;;;6.03;77.33
57192;BME280;43052;52.588;13.396;2023-04-08T01:21:00;101680.31;;;5.96;77.77
57192;BME280;43052;52.588;13.396;2023-04-08T01:23:38;101686.25;;;5.92;77.90
57192;BME280;43052;52.588;13.396;2023-04-08T01:26:05;101682.69;;;5.88;78.09
57192;BME280;43052;52.588;13.396;2023-04-08T01:28:31;101685.16;;;5.84;78.02
57192;BME280;43052;52.588;13.396;2023-04-08T01:30:59;101682.53;;;5.82;78.14
57192;BME280;43052;52.588;13.396;2023-04-08T01:33:26;101684.03;;;5.74;78.39
57192;BME280;43052;52.588;13.396;2023-04-08T01:35:53;101680.50;;;5.72;78.40
57192;BME280;43052;52.588;13.396;2023-04-08T01:38:19;101677.16;;;5.76;78.60
57192;BME280;43052;52.588;13.396;2023-04-08T01:40:47;101687.56;;;5.76;78.65
57192;BME280;43052;52.588;13.396;2023-04-08T01:43:15;101694.50;;;5.77;78.60
57192;BME280;43052;52.588;13.396;2023-04-08T01:45:43;101699.56;;;5.72;78.53
57192;BME280;43052;52.588;13.396;2023-04-08T01:48:11;101701.16;;;5.69;78.86
57192;BME280;43052;52.588;13.396;2023-04-08T01:50:37;101702.09;;;5.71;79.04
57192;BME280;43052;52.588;13.396;2023-04-08T01:53:04;101691.84;;;5.75;78.85
57192;BME280;43052;52.588;13.396;2023-04-08T01:55:32;101695.63;;;5.87;78.94
57192;BME280;43052;52.588;13.396;2023-04-08T01:57:59;101689.81;;;5.95;78.87
57192;BME280;43052;52.588;13.396;2023-04-08T02:00:28;101688.41;;;6.05;78.36
57192;BME280;43052;52.588;13.396;2023-04-08T02:02:54;101684.31;;;6.14;78.31
57192;BME280;43052;52.588;13.396;2023-04-08T02:05:21;101682.63;;;6.16;78.24
57192;BME280;43052;52.588;13.396;2023-04-08T02:07:47;101687.06;;;6.20;78.15
57192;BME280;43052;52.588;13.396;2023-04-08T02:10:12;101693.22;;;6.23;78.16
57192;BME280;43052;52.588;13.396;2023-04-08T02:12:38;101681.84;;;6.18;77.99
57192;BME280;43052;52.588;13.396;2023-04-08T02:15:04;101695.56;;;6.14;77.83
57192;BME280;43052;52.588;13.396;2023-04-08T02:17:38;101700.72;;;6.13;78.14
57192;BME280;43052;52.588;13.396;2023-04-08T02:20:07;101712.72;;;6.07;78.21
57192;BME280;43052;52.588;13.396;2023-04-08T02:22:39;101706.41;;;5.99;78.09
57192;BME280;43052;52.588;13.396;2023-04-08T02:25:10;101705.31;;;5.92;78.38
57192;BME280;43052;52.588;13.396;2023-04-08T02:27:38;101713.97;;;5.93;78.27
57192;BME280;43052;52.588;13.396;2023-04-08T02:30:05;101716.66;;;5.94;78.28
57192;BME280;43052;52.588;13.396;2023-04-08T02:32:35;101710.59;;;5.95;78.37
57192;BME280;43052;52.588;13.396;2023-04-08T02:35:01;101715.13;;;6.01;78.39
57192;BME280;43052;52.588;13.396;2023-04-08T02:37:28;101715.88;;;5.99;78.30
57192;BME280;43052;52.588;13.396;2023-04-08T02:39:54;101699.22;;;5.92;78.51
57192;BME280;43052;52.588;13.396;2023-04-08T02:42:21;101711.47;;;5.96;78.23
57192;BME280;43052;52.588;13.396;2023-04-08T02:44:46;101717.69;;;6.00;78.55
57192;BME280;43052;52.588;13.396;2023-04-08T02:47:11;101719.44;;;6.01;78.61
57192;BME280;43052;52.588;13.396;2023-04-08T02:49:37;101722.97;;;6.03;78.31
57192;BME280;43052;52.588;13.396;2023-04-08T02:52:02;101723.97;;;6.08;78.34
57192;BME280;43052;52.588;13.396;2023-04-08T02:54:27;101726.34;;;6.00;78.17
57192;BME280;43052;52.588;13.396;2023-04-08T02:56:52;101721.91;;;5.97;78.20
57192;BME280;43052;52.588;13.396;2023-04-08T02:59:18;101729.53;;;5.91;78.33
57192;BME280;43052;52.588;13.396;2023-04-08T03:01:43;101732.09;;;5.90;78.83
57192;BME280;43052;52.588;13.396;2023-04-08T03:04:08;101723.50;;;5.92;78.64
57192;BME280;43052;52.588;13.396;2023-04-08T03:06:33;101718.25;;;5.91;78.79
57192;BME280;43052;52.588;13.396;2023-04-08T03:08:59;101734.72;;;5.91;78.89
57192;BME280;43052;52.588;13.396;2023-04-08T03:11:24;101726.03;;;5.91;78.83
57192;BME280;43052;52.588;13.396;2023-04-08T03:13:50;101739.91;;;5.91;79.06
57192;BME280;43052;52.588;13.396;2023-04-08T03:16:15;101738.94;;;5.88;78.82
57192;BME280;43052;52.588;13.396;2023-04-08T03:18:40;101738.97;;;5.89;78.72
57192;BME280;43052;52.588;13.396;2023-04-08T03:21:05;101742.25;;;5.84;78.75
57192;BME280;43052;52.588;13.396;2023-04-08T03:23:31;101746.50;;;5.80;78.89
57192;BME280;43052;52.588;13.396;2023-04-08T03:25:57;101747.28;;;5.77;79.16
57192;BME280;43052;52.588;13.396;2023-04-08T03:28:22;101755.94;;;5.78;79.18
57192;BME280;43052;52.588;13.396;2023-04-08T03:30:48;101750.03;;;5.82;79.26
57192;BME280;43052;52.588;13.396;2023-04-08T03:33:13;101750.81;;;5.79;79.37
57192;BME280;43052;52.588;13.396;2023-04-08T03:35:38;101749.88;;;5.77;79.31
57192;BME280;43052;52.588;13.396;2023-04-08T03:38:04;101752.59;;;5.80;79.50
57192;BME280;43052;52.588;13.396;2023-04-08T03:40:30;101757.00;;;5.85;79.49
57192;BME280;43052;52.588;13.396;2023-04-08T03:42:55;101754.97;;;5.74;79.47
57192;BME280;43052;52.588;13.396;2023-04-08T03:45:20;101753.16;;;5.72;79.67
57192;BME280;43052;52.588;13.396;2023-04-08T03:47:45;101750.56;;;5.72;79.59
57192;BME280;43052;52.588;13.396;2023-04-08T03:50:11;101757.66;;;5.77;79.79
57192;BME280;43052;52.588;13.396;2023-04-08T03:52:44;101759.56;;;5.83;79.50
57192;BME280;43052;52.588;13.396;2023-04-08T03:55:10;101760.44;;;5.84;79.70
57192;BME280;43052;52.588;13.396;2023-04-08T03:57:35;101768.19;;;5.82;79.67
57192;BME280;43052;52.588;13.396;2023-04-08T04:00:00;101766.38;;;5.79;79.53
57192;BME280;43052;52.588;13.396;2023-04-08T04:02:25;101767.38;;;5.83;79.57
57192;BME280;43052;52.588;13.396;2023-04-08T04:04:51;101777.56;;;5.77;79.66
57192;BME280;43052;52.588;13.396;2023-04-08T04:07:16;101772.38;;;5.77;79.67
57192;BME280;43052;52.588;13.396;2023-04-08T04:09:48;101769.63;;;5.72;79.75
57192;BME280;43052;52.588;13.396;2023-04-08T04:12:13;101767.81;;;5.70;79.87
57192;BME280;43052;52.588;13.396;2023-04-08T04:14:38;101779.25;;;5.76;79.86
57192;BME280;43052;52.588;13.396;2023-04-08T04:17:03;101775.03;;;5.80;79.88
57192;BME280;43052;52.588;13.396;2023-04-08T04:19:29;101789.94;;;5.86;79.95
57192;BME280;43052;52.588;13.396;2023-04-08T04:21:55;101792.56;;;5.87;80.02
57192;BME280;43052;52.588;13.396;2023-04-08T04:24:20;101796.88;;;5.87;79.91
57192;BME280;43052;52.588;13.396;2023-04-08T04:26:46;101797.75;;;5.87;79.97
57192;BME280;43052;52.588;13.396;2023-04-08T04:29:11;101789.06;;;5.85;79.81
57192;BME280;43052;52.588;13.396;2023-04-08T04:31:36;101786.50;;;5.87;79.76
57192;BME280;43052;52.588;13.396;2023-04-08T04:34:02;101794.53;;;5.94;80.10
57192;BME280;43052;52.588;13.396;2023-04-08T04:36:27;101797.31;;;5.99;79.67
57192;BME280;43052;52.588;13.396;2023-04-08T04:38:52;101790.41;;;6.01;79.39
57192;BME280;43052;52.588;13.396;2023-04-08T04:41:17;101797.34;;;6.01;79.61
57192;BME280;43052;52.588;13.396;2023-04-08T04:43:43;101802.53;;;6.01;79.29
57192;BME280;43052;52.588;13.396;2023-04-08T04:46:08;101810.28;;;5.99;79.47
57192;BME280;43052;52.588;13.396;2023-04-08T04:48:34;101808.50;;;5.98;79.61
57192;BME280;43052;52.588;13.396;2023-04-08T04:51:00;101812.97;;;6.02;79.45
57192;BME280;43052;52.588;13.396;2023-04-08T04:53:27;101812.16;;;6.05;79.83
57192;BME280;43052;52.588;13.396;2023-04-08T04:55:52;101818.97;;;6.01;79.47
57192;BME280;43052;52.588;13.396;2023-04-08T04:58:17;101813.59;;;5.95;79.48
57192;BME280;43052;52.588;13.396;2023-04-08T05:00:43;101825.69;;;5.94;79.54
57192;BME280;43052;52.588;13.396;2023-04-08T05:03:08;101828.97;;;5.89;79.50
57192;BME280;43052;52.588;13.396;2023-04-08T05:05:33;101824.50;;;5.85;79.72
57192;BME280;43052;52.588;13.396;2023-04-08T05:08:00;101831.75;;;5.95;79.76
57192;BME280;43052;52.588;13.396;2023-04-08T05:10:25;101833.06;;;6.09;79.47
57192;BME280;43052;52.588;13.396;2023-04-08T05:12:50;101832.31;;;6.12;79.31
57192;BME280;43052;52.588;13.396;2023-04-08T05:15:15;101833.88;;;6.07;79.04
57192;BME280;43052;52.588;13.396;2023-04-08T05:17:41;101833.72;;;6.02;79.44
57192;BME280;43052;52.588;13.396;2023-04-08T05:20:06;101836.34;;;6.02;79.37
57192;BME280;43052;52.588;13.396;2023-04-08T05:22:32;101837.88;;;5.97;79.29
57192;BME280;43052;52.588;13.396;2023-04-08T05:24:57;101840.38;;;5.94;79.42
57192;BME280;43052;52.588;13.396;2023-04-08T05:27:22;101838.72;;;5.96;79.51
57192;BME280;43052;52.588;13.396;2023-04-08T05:29:47;101839.75;;;6.01;79.58
57192;BME280;43052;52.588;13.396;2023-04-08T05:32:13;101843.94;;;5.97;79.63
57192;BME280;43052;52.588;13.396;2023-04-08T05:34:38;101851.22;;;6.08;79.61
57192;BME280;43052;52.588;13.396;2023-04-08T05:37:03;101850.38;;;6.09;79.28
57192;BME280;43052;52.588;13.396;2023-04-08T05:39:28;101858.19;;;6.09;79.48
57192;BME280;43052;52.588;13.396;2023-04-08T05:41:54;101852.06;;;6.07;79.31
57192;BME280;43052;52.588;13.396;2023-04-08T05:44:19;101857.63;;;6.19;79.80
57192;BME280;43052;52.588;13.396;2023-04-08T05:46:44;101869.34;;;6.35;79.44
57192;BME280;43052;52.588;13.396;2023-04-08T05:49:10;101870.44;;;6.43;79.23
57192;BME280;43052;52.588;13.396;2023-04-08T05:51:36;101877.19;;;6.37;78.92
57192;BME280;43052;52.588;13.396;2023-04-08T05:54:01;101876.16;;;6.32;78.82
57192;BME280;43052;52.588;13.396;2023-04-08T05:56:27;101884.03;;;6.33;79.08
57192;BME280;43052;52.588;13.396;2023-04-08T05:58:52;101885.06;;;6.40;79.15
57192;BME280;43052;52.588;13.396;2023-04-08T06:01:17;101886.38;;;6.54;78.77
57192;BME280;43052;52.588;13.396;2023-04-08T06:03:42;101889.13;;;6.61;78.45
57192;BME280;43052;52.588;13.396;2023-04-08T06:06:09;101887.53;;;6.66;78.45
57192;BME280;43052;52.588;13.396;2023-04-08T06:08:35;101893.75;;;6.69;78.22
57192;BME280;43052;52.588;13.396;2023-04-08T06:11:01;101885.19;;;6.75;78.41
57192;BME280;43052;52.588;13.396;2023-04-08T06:13:28;101887.91;;;6.78;77.98
57192;BME280;43052;52.588;13.396;2023-04-08T06:15:53;101892.84;;;6.69;77.93
57192;BME280;43052;52.588;13.396;2023-04-08T06:18:18;101886.66;;;6.65;78.21
57192;BME280;43052;52.588;13.396;2023-04-08T06:20:43;101894.59;;;6.70;78.22
57192;BME280;43052;52.588;13.396;2023-04-08T06:23:10;101888.84;;;6.80;77.90
57192;BME280;43052;52.588;13.396;2023-04-08T06:25:35;101892.25;;;6.79;77.82
57192;BME280;43052;52.588;13.396;2023-04-08T06:28:01;101888.25;;;6.90;77.62
57192;BME280;43052;52.588;13.396;2023-04-08T06:30:26;101890.34;;;7.04;77.53
57192;BME280;43052;52.588;13.396;2023-04-08T06:32:51;101904.44;;;7.12;77.27
57192;BME280;43052;52.588;13.396;2023-04-08T06:35:17;101897.41;;;7.08;77.05
57192;BME280;43052;52.588;13.396;2023-04-08T06:37:42;101905.09;;;7.05;77.12
57192;BME280;43052;52.588;13.396;2023-04-08T06:40:08;101906.88;;;7.06;77.08
57192;BME280;43052;52.588;13.396;2023-04-08T06:42:34;101915.78;;;7.16;77.17
57192;BME280;43052;52.588;13.396;2023-04-08T06:44:59;101910.53;;;7.13;77.07
57192;BME280;43052;52.588;13.396;2023-04-08T06:47:25;101919.19;;;7.13;76.89
57192;BME280;43052;52.588;13.396;2023-04-08T06:49:50;101914.34;;;7.26;76.97
57192;BME280;43052;52.588;13.396;2023-04-08T06:52:15;101922.50;;;7.40;76.77
57192;BME280;43052;52.588;13.396;2023-04-08T06:54:41;101938.41;;;7.50;76.54
57192;BME280;43052;52.588;13.396;2023-04-08T06:57:06;101938.38;;;7.49;76.31
57192;BME280;43052;52.588;13.396;2023-04-08T06:59:31;101939.34;;;7.52;76.49
57192;BME280;43052;52.588;13.396;2023-04-08T07:01:57;101943.00;;;7.61;76.13
57192;BME280;43052;52.588;13.396;2023-04-08T07:04:22;101944.13;;;7.71;75.60
57192;BME280;43052;52.588;13.396;2023-04-08T07:06:47;101941.72;;;7.78;75.52
57192;BME280;43052;52.588;13.396;2023-04-08T07:09:12;101947.09;;;7.86;75.40
57192;BME280;43052;52.588;13.396;2023-04-08T07:11:37;101942.81;;;7.88;74.81
57192;BME280;43052;52.588;13.396;2023-04-08T07:14:03;101948.94;;;7.90;74.51
57192;BME280;43052;52.588;13.396;2023-04-08T07:16:28;101948.34;;;8.02;74.76
57192;BME280;43052;52.588;13.396;2023-04-08T07:18:53;101951.06;;;8.07;73.68
57192;BME280;43052;52.588;13.396;2023-04-08T07:21:18;101952.97;;;8.14;74.14
57192;BME280;43052;52.588;13.396;2023-04-08T07:23:44;101957.53;;;8.23;73.38
57192;BME280;43052;52.588;13.396;2023-04-08T07:26:09;101955.69;;;8.19;73.38
57192;BME280;43052;52.588;13.396;2023-04-08T07:28:34;101953.09;;;8.20;73.67
57192;BME280;43052;52.588;13.396;2023-04-08T07:31:10;101959.78;;;8.45;73.49
57192;BME280;43052;52.588;13.396;2023-04-08T07:33:36;101966.09;;;8.55;73.39
57192;BME280;43052;52.588;13.396;2023-04-08T07:36:01;101968.97;;;8.66;73.15
57192;BME280;43052;52.588;13.396;2023-04-08T07:38:26;101968.97;;;8.66;72.04
57192;BME280;43052;52.588;13.396;2023-04-08T07:40:52;101979.09;;;8.52;71.90
57192;BME280;43052;52.588;13.396;2023-04-08T07:43:17;101977.28;;;8.50;72.55
57192;BME280;43052;52.588;13.396;2023-04-08T07:45:42;101976.50;;;8.54;72.27
57192;BME280;43052;52.588;13.396;2023-04-08T07:48:07;101973.28;;;8.66;72.18
57192;BME280;43052;52.588;13.396;2023-04-08T07:50:35;101981.28;;;8.73;72.62
57192;BME280;43052;52.588;13.396;2023-04-08T07:53:00;101982.25;;;8.78;72.06
57192;BME280;43052;52.588;13.396;2023-04-08T07:55:25;101980.72;;;8.88;72.02
57192;BME280;43052;52.588;13.396;2023-04-08T07:57:51;101981.88;;;9.01;71.74
57192;BME280;43052;52.588;13.396;2023-04-08T08:00:16;101977.22;;;9.31;71.70
57192;BME280;43052;52.588;13.396;2023-04-08T08:02:46;101985.03;;;9.78;71.14
57192;BME280;43052;52.588;13.396;2023-04-08T08:05:12;101985.75;;;10.23;69.88
57192;BME280;43052;52.588;13.396;2023-04-08T08:07:37;101988.69;;;10.42;69.18
57192;BME280;43052;52.588;13.396;2023-04-08T08:10:03;101988.91;;;10.57;68.77
57192;BME280;43052;52.588;13.396;2023-04-08T08:12:28;101978.63;;;10.70;68.29
57192;BME280;43052;52.588;13.396;2023-04-08T08:14:54;101981.47;;;10.88;67.71
57192;BME280;43052;52.588;13.396;2023-04-08T08:17:22;101977.34;;;11.07;67.07
57192;BME280;43052;52.588;13.396;2023-04-08T08:19:48;101989.69;;;11.18;65.95
57192;BME280;43052;52.588;13.396;2023-04-08T08:22:14;101984.50;;;11.24;65.55
57192;BME280;43052;52.588;13.396;2023-04-08T08:24:39;101991.34;;;11.12;65.71
57192;BME280;43052;52.588;13.396;2023-04-08T08:27:04;101990.19;;;10.90;64.66
57192;BME280;43052;52.588;13.396;2023-04-08T08:29:30;102001.50;;;10.88;64.70
57192;BME280;43052;52.588;13.396;2023-04-08T08:31:55;102007.47;;;10.76;65.37
57192;BME280;43052;52.588;13.396;2023-04-08T08:34:21;102007.13;;;10.51;64.96
57192;BME280;43052;52.588;13.396;2023-04-08T08:36:47;102002.69;;;10.47;65.63
57192;BME280;43052;52.588;13.396;2023-04-08T08:39:12;101999.69;;;10.24;65.29
57192;BME280;43052;52.588;13.396;2023-04-08T08:41:37;102011.75;;;10.12;65.35
57192;BME280;43052;52.588;13.396;2023-04-08T08:44:06;102007.13;;;9.96;66.01
57192;BME280;43052;52.588;13.396;2023-04-08T08:46:33;102015.06;;;10.03;66.48
57192;BME280;43052;52.588;13.396;2023-04-08T08:48:58;102015.16;;;10.10;66.16
57192;BME280;43052;52.588;13.396;2023-04-08T08:51:24;102006.44;;;10.09;66.46
57192;BME280;43052;52.588;13.396;2023-04-08T08:53:50;102010.75;;;10.06;66.19
57192;BME280;43052;52.588;13.396;2023-04-08T08:56:15;102008.81;;;9.95;66.18
57192;BME280;43052;52.588;13.396;2023-04-08T08:58:40;102023.66;;;9.96;66.59
57192;BME280;43052;52.588;13.396;2023-04-08T09:01:35;102027.06;;;9.92;66.52
57192;BME280;43052;52.588;13.396;2023-04-08T09:04:20;102024.34;;;9.86;66.61
57192;BME280;43052;52.588;13.396;2023-04-08T09:06:48;102037.06;;;9.67;67.30
57192;BME280;43052;52.588;13.396;2023-04-08T09:09:15;102033.41;;;9.56;67.41
57192;BME280;43052;52.588;13.396;2023-04-08T09:11:43;102039.09;;;9.84;67.55
57192;BME280;43052;52.588;13.396;2023-04-08T09:14:18;102043.88;;;10.07;66.46
57192;BME280;43052;52.588;13.396;2023-04-08T09:16:43;102043.28;;;10.23;66.33
57192;BME280;43052;52.588;13.396;2023-04-08T09:19:10;102049.44;;;10.28;65.96
57192;BME280;43052;52.588;13.396;2023-04-08T09:21:36;102055.41;;;10.18;65.78
57192;BME280;43052;52.588;13.396;2023-04-08T09:24:01;102046.31;;;9.96;65.90
57192;BME280;43052;52.588;13.396;2023-04-08T09:26:26;102055.78;;;9.89;66.05
57192;BME280;43052;52.588;13.396;2023-04-08T09:29:06;102054.69;;;9.79;66.31
57192;BME280;43052;52.588;13.396;2023-04-08T09:31:35;102062.44;;;9.75;66.34
57192;BME280;43052;52.588;13.396;2023-04-08T09:34:14;102066.81;;;9.74;66.78
57192;BME280;43052;52.588;13.396;2023-04-08T09:36:41;102062.59;;;9.81;66.56
57192;BME280;43052;52.588;13.396;2023-04-08T09:39:06;102062.50;;;9.76;66.29
57192;BME280;43052;52.588;13.396;2023-04-08T09:41:36;102066.25;;;9.91;66.62
57192;BME280;43052;52.588;13.396;2023-04-08T09:44:06;102064.97;;;10.19;66.09
57192;BME280;43052;52.588;13.396;2023-04-08T09:46:55;102065.13;;;10.27;65.51
57192;BME280;43052;52.588;13.396;2023-04-08T09:49:22;102054.00;;;10.39;65.23
57192;BME280;43052;52.588;13.396;2023-04-08T09:52:07;102060.38;;;10.55;65.39
57192;BME280;43052;52.588;13.396;2023-04-08T09:54:43;102063.28;;;10.75;64.75
57192;BME280;43052;52.588;13.396;2023-04-08T09:57:09;102071.19;;;10.79;63.88
57192;BME280;43052;52.588;13.396;2023-04-08T09:59:36;102059.88;;;10.82;63.62
57192;BME280;43052;52.588;13.396;2023-04-08T10:02:08;102063.66;;;11.01;63.76
57192;BME280;43052;52.588;13.396;2023-04-08T10:04:38;102057.81;;;11.24;63.68
57192;BME280;43052;52.588;13.396;2023-04-08T10:07:07;102067.56;;;11.36;63.21
57192;BME280;43052;52.588;13.396;2023-04-08T10:09:34;102063.13;;;11.30;62.61
57192;BME280;43052;52.588;13.396;2023-04-08T10:12:01;102064.69;;;11.16;62.31
57192;BME280;43052;52.588;13.396;2023-04-08T10:14:27;102065.38;;;11.01;62.66
57192;BME280;43052;52.588;13.396;2023-04-08T10:17:26;102068.72;;;10.89;62.88
57192;BME280;43052;52.588;13.396;2023-04-08T10:19:52;102067.59;;;10.71;62.64
57192;BME280;43052;52.588;13.396;2023-04-08T10:22:44;102065.97;;;10.81;62.57
57192;BME280;43052;52.588;13.396;2023-04-08T10:27:42;102062.66;;;12.62;58.82
57192;BME280;43052;52.588;13.396;2023-04-08T10:32:54;102062.97;;;13.16;55.37
57192;BME280;43052;52.588;13.396;2023-04-08T10:35:28;102063.53;;;12.64;55.35
57192;BME280;43052;52.588;13.396;2023-04-08T10:37:54;102065.72;;;12.05;56.65
57192;BME280;43052;52.588;13.396;2023-04-08T10:40:20;102063.84;;;11.97;57.43
57192;BME280;43052;52.588;13.396;2023-04-08T10:42:45;102061.47;;;12.20;56.66
57192;BME280;43052;52.588;13.396;2023-04-08T10:45:15;102062.34;;;12.20;56.08
57192;BME280;43052;52.588;13.396;2023-04-08T10:47:41;102061.53;;;12.31;56.33
57192;BME280;43052;52.588;13.396;2023-04-08T10:50:13;102059.00;;;12.38;55.92
57192;BME280;43052;52.588;13.396;2023-04-08T10:52:52;102061.94;;;12.93;54.97
57192;BME280;43052;52.588;13.396;2023-04-08T10:55:36;102053.50;;;13.53;53.85
57192;BME280;43052;52.588;13.396;2023-04-08T10:58:10;102050.03;;;13.71;51.29
57192;BME280;43052;52.588;13.396;2023-04-08T11:00:38;102062.28;;;13.69;52.23
57192;BME280;43052;52.588;13.396;2023-04-08T11:03:05;102052.69;;;13.83;51.49
57192;BME280;43052;52.588;13.396;2023-04-08T11:05:32;102058.84;;;14.21;49.85
57192;BME280;43052;52.588;13.396;2023-04-08T11:07:58;102054.44;;;14.09;49.61
57192;BME280;43052;52.588;13.396;2023-04-08T11:10:24;102061.47;;;14.10;50.95
57192;BME280;43052;52.588;13.396;2023-04-08T11:12:50;102050.06;;;14.23;50.04
57192;BME280;43052;52.588;13.396;2023-04-08T11:15:16;102057.94;;;14.34;48.63
57192;BME280;43052;52.588;13.396;2023-04-08T11:17:41;102053.56;;;13.96;49.43
57192;BME280;43052;52.588;13.396;2023-04-08T11:20:08;102059.63;;;13.62;50.12
57192;BME280;43052;52.588;13.396;2023-04-08T11:22:33;102054.16;;;13.11;50.94
57192;BME280;43052;52.588;13.396;2023-04-08T11:25:00;102057.50;;;12.73;52.28
57192;BME280;43052;52.588;13.396;2023-04-08T11:27:26;102055.59;;;12.57;53.16
57192;BME280;43052;52.588;13.396;2023-04-08T11:29:54;102059.19;;;12.68;53.73
57192;BME280;43052;52.588;13.396;2023-04-08T11:32:21;102063.63;;;12.77;52.99
57192;BME280;43052;52.588;13.396;2023-04-08T11:34:48;102063.66;;;12.81;53.01
57192;BME280;43052;52.588;13.396;2023-04-08T11:37:14;102061.19;;;13.17;52.34
57192;BME280;43052;52.588;13.396;2023-04-08T11:39:43;102058.69;;;13.40;52.52
57192;BME280;43052;52.588;13.396;2023-04-08T11:42:08;102061.38;;;13.48;51.46
57192;BME280;43052;52.588;13.396;2023-04-08T11:44:34;102064.00;;;13.56;51.67
57192;BME280;43052;52.588;13.396;2023-04-08T11:47:00;102060.50;;;13.68;50.83
57192;BME280;43052;52.588;13.396;2023-04-08T11:49:26;102066.66;;;13.63;50.66
57192;BME280;43052;52.588;13.396;2023-04-08T11:51:58;102064.03;;;13.71;49.86
57192;BME280;43052;52.588;13.396;2023-04-08T11:54:31;102052.66;;;13.91;49.15
57192;BME280;43052;52.588;13.396;2023-04-08T11:56:57;102057.06;;;13.86;49.03
57192;BME280;43052;52.588;13.396;2023-04-08T11:59:25;102054.44;;;13.97;49.22
57192;BME280;43052;52.588;13.396;2023-04-08T12:01:51;102056.19;;;13.99;48.52
57192;BME280;43052;52.588;13.396;2023-04-08T12:04:16;102056.19;;;14.02;47.81
57192;BME280;43052;52.588;13.396;2023-04-08T12:06:42;102052.69;;;14.28;48.81
57192;BME280;43052;52.588;13.396;2023-04-08T12:09:12;102057.94;;;14.45;47.96
57192;BME280;43052;52.588;13.396;2023-04-08T12:11:37;102051.81;;;14.28;48.32
57192;BME280;43052;52.588;13.396;2023-04-08T12:14:02;102059.69;;;14.17;47.80
57192;BME280;43052;52.588;13.396;2023-04-08T12:16:28;102055.31;;;14.05;48.10
57192;BME280;43052;52.588;13.396;2023-04-08T12:18:53;102053.56;;;14.24;47.85
57192;BME280;43052;52.588;13.396;2023-04-08T12:21:19;102068.47;;;14.44;47.50
57192;BME280;43052;52.588;13.396;2023-04-08T12:23:44;102053.56;;;14.18;48.03
57192;BME280;43052;52.588;13.396;2023-04-08T12:26:10;102059.69;;;13.97;48.97
57192;BME280;43052;52.588;13.396;2023-04-08T12:28:35;102054.44;;;13.97;49.10
57192;BME280;43052;52.588;13.396;2023-04-08T12:31:01;102062.31;;;13.90;49.51
57192;BME280;43052;52.588;13.396;2023-04-08T12:33:26;102059.66;;;13.78;49.55
57192;BME280;43052;52.588;13.396;2023-04-08T12:35:51;102058.75;;;13.59;50.41
57192;BME280;43052;52.588;13.396;2023-04-08T12:38:18;102056.03;;;13.37;49.51
57192;BME280;43052;52.588;13.396;2023-04-08T12:40:43;102062.97;;;13.16;50.22
57192;BME280;43052;52.588;13.396;2023-04-08T12:43:08;102069.91;;;13.11;50.64
57192;BME280;43052;52.588;13.396;2023-04-08T12:45:33;102058.56;;;13.19;50.81
57192;BME280;43052;52.588;13.396;2023-04-08T12:47:59;102064.66;;;13.07;51.36
57192;BME280;43052;52.588;13.396;2023-04-08T12:50:24;102055.72;;;12.72;51.67